createdAt,value
2022-10-07T00:00:28.905Z,1023.29
2022-10-07T00:01:29.392Z,1023.34
2022-10-07T00:02:29.031Z,1023.33
2022-10-07T00:03:28.898Z,1023.32
2022-10-07T00:04:28.867Z,1023.32
2022-10-07T00:05:28.860Z,1023.28
2022-10-07T00:06:28.912Z,1023.32
2022-10-07T00:07:28.916Z,1023.29
2022-10-07T00:08:28.833Z,1023.29
2022-10-07T00:09:28.801Z,1023.30
2022-10-07T00:10:28.798Z,1023.30
2022-10-07T00:11:28.848Z,1023.27
2022-10-07T00:12:28.787Z,1023.26
2022-10-07T00:13:28.768Z,1023.28
2022-10-07T00:14:28.750Z,1023.24
2022-10-07T00:15:28.749Z,1023.25
2022-10-07T00:16:28.827Z,1023.22
2022-10-07T00:17:28.729Z,1023.22
2022-10-07T00:18:28.697Z,1023.26
2022-10-07T00:19:28.709Z,1023.23
2022-10-07T00:20:28.687Z,1023.26
2022-10-07T00:21:28.727Z,1023.27
2022-10-07T00:22:28.666Z,1023.28
2022-10-07T00:23:28.655Z,1023.31
2022-10-07T00:24:28.655Z,1023.26
2022-10-07T00:25:28.625Z,1023.26
2022-10-07T00:26:28.665Z,1023.29
2022-10-07T00:27:28.595Z,1023.26
2022-10-07T00:28:28.626Z,1023.22
2022-10-07T00:29:28.574Z,1023.23
2022-10-07T00:30:28.633Z,1023.22
2022-10-07T00:31:28.601Z,1023.21
2022-10-07T00:32:28.654Z,1023.24
2022-10-07T00:33:28.557Z,1023.24
2022-10-07T00:34:28.522Z,1023.21
2022-10-07T00:35:28.496Z,1023.16
2022-10-07T00:36:28.529Z,1023.19
2022-10-07T00:37:28.469Z,1023.19
2022-10-07T00:38:28.388Z,1023.20
2022-10-07T00:39:28.361Z,1023.20
2022-10-07T00:40:28.375Z,1023.21
2022-10-07T00:41:28.394Z,1023.15
2022-10-07T00:42:28.453Z,1023.14
2022-10-07T00:43:28.315Z,1023.09
2022-10-07T00:44:28.327Z,1023.11
2022-10-07T00:45:28.402Z,1023.05
2022-10-07T00:46:28.335Z,1023.11
2022-10-07T00:47:28.289Z,1023.06
2022-10-07T00:48:28.290Z,1023.06
2022-10-07T00:49:28.268Z,1023.06
2022-10-07T00:50:28.265Z,1023.05
2022-10-07T00:51:28.279Z,1023.05
2022-10-07T00:52:28.225Z,1023.05
2022-10-07T00:53:28.222Z,1023.03
2022-10-07T00:54:28.224Z,1023.05
2022-10-07T00:55:28.181Z,1023.05
2022-10-07T00:56:28.217Z,1023.05
2022-10-07T00:57:28.153Z,1023.01
2022-10-07T00:58:28.142Z,1022.99
2022-10-07T00:59:28.133Z,1022.99
2022-10-07T01:00:28.140Z,1022.95
2022-10-07T01:01:28.248Z,1022.93
2022-10-07T01:02:28.153Z,1022.92
2022-10-07T01:03:28.102Z,1022.93
2022-10-07T01:04:28.089Z,1022.87
2022-10-07T01:05:28.083Z,1022.84
2022-10-07T01:06:28.124Z,1022.80
2022-10-07T01:07:28.065Z,1022.84
2022-10-07T01:08:28.050Z,1022.81
2022-10-07T01:09:28.020Z,1022.78
2022-10-07T01:10:28.034Z,1022.75
2022-10-07T01:11:28.051Z,1022.74
2022-10-07T01:12:28.007Z,1022.72
2022-10-07T01:13:27.986Z,1022.79
2022-10-07T01:14:27.990Z,1022.73
2022-10-07T01:15:27.970Z,1022.73
2022-10-07T01:16:28.057Z,1022.70
2022-10-07T01:17:27.955Z,1022.71
2022-10-07T01:18:27.931Z,1022.71
2022-10-07T01:19:27.927Z,1022.70
2022-10-07T01:20:27.910Z,1022.73
2022-10-07T01:21:27.940Z,1022.70
2022-10-07T01:22:27.892Z,1022.68
2022-10-07T01:23:27.874Z,1022.65
2022-10-07T01:24:27.870Z,1022.63
2022-10-07T01:25:27.844Z,1022.64
2022-10-07T01:26:27.874Z,1022.68
2022-10-07T01:27:27.818Z,1022.61
2022-10-07T01:28:27.840Z,1022.59
2022-10-07T01:29:27.806Z,1022.63
2022-10-07T01:30:27.812Z,1022.56
2022-10-07T01:31:27.824Z,1022.56
2022-10-07T01:32:27.768Z,1022.58
2022-10-07T01:33:27.774Z,1022.55
2022-10-07T01:34:27.748Z,1022.52
2022-10-07T01:35:27.781Z,1022.50
2022-10-07T01:36:27.776Z,1022.54
2022-10-07T01:37:27.728Z,1022.48
2022-10-07T01:38:27.708Z,1022.48
2022-10-07T01:39:27.686Z,1022.50
2022-10-07T01:40:27.696Z,1022.49
2022-10-07T01:41:27.702Z,1022.47
2022-10-07T01:42:27.667Z,1022.43
2022-10-07T01:43:27.653Z,1022.45
2022-10-07T01:44:27.645Z,1022.44
2022-10-07T01:45:27.624Z,1022.42
2022-10-07T01:46:27.793Z,1022.45
2022-10-07T01:47:27.607Z,1022.42
2022-10-07T01:48:27.586Z,1022.43
2022-10-07T01:49:27.591Z,1022.45
2022-10-07T01:50:27.576Z,1022.41
2022-10-07T01:51:27.599Z,1022.39
2022-10-07T01:52:27.648Z,1022.41
2022-10-07T01:53:27.545Z,1022.38
2022-10-07T01:54:27.529Z,1022.39
2022-10-07T01:55:27.503Z,1022.38
2022-10-07T01:56:27.534Z,1022.34
2022-10-07T01:57:27.478Z,1022.32
2022-10-07T01:58:27.497Z,1022.35
2022-10-07T01:59:27.469Z,1022.39
2022-10-07T02:00:27.478Z,1022.26
2022-10-07T02:01:27.547Z,1022.31
2022-10-07T02:02:27.569Z,1022.27
2022-10-07T02:03:27.491Z,1022.26
2022-10-07T02:04:27.410Z,1022.26
2022-10-07T02:05:27.386Z,1022.27
2022-10-07T02:06:27.459Z,1022.21
2022-10-07T02:07:27.383Z,1022.19
2022-10-07T02:08:27.381Z,1022.22
2022-10-07T02:09:27.347Z,1022.23
2022-10-07T02:10:27.356Z,1022.23
2022-10-07T02:11:27.400Z,1022.18
2022-10-07T02:12:27.407Z,1022.21
2022-10-07T02:13:27.335Z,1022.19
2022-10-07T02:14:27.320Z,1022.24
2022-10-07T02:15:27.285Z,1022.19
2022-10-07T02:16:27.410Z,1022.18
2022-10-07T02:17:27.268Z,1022.14
2022-10-07T02:18:27.366Z,1022.12
2022-10-07T02:19:27.255Z,1022.14
2022-10-07T02:20:27.235Z,1022.12
2022-10-07T02:21:27.264Z,1022.13
2022-10-07T02:22:27.308Z,1022.14
2022-10-07T02:23:27.215Z,1022.11
2022-10-07T02:24:27.173Z,1022.08
2022-10-07T02:25:27.169Z,1022.12
2022-10-07T02:26:27.203Z,1022.08
2022-10-07T02:27:27.141Z,1022.09
2022-10-07T02:28:27.185Z,1022.14
2022-10-07T02:29:27.127Z,1022.14
2022-10-07T02:30:27.130Z,1022.10
2022-10-07T02:31:27.205Z,1022.09
2022-10-07T02:32:27.092Z,1022.06
2022-10-07T02:33:27.097Z,1022.07
2022-10-07T02:34:27.068Z,1022.05
2022-10-07T02:35:27.068Z,1022.01
2022-10-07T02:36:27.101Z,1022.05
2022-10-07T02:37:27.158Z,1022.06
2022-10-07T02:38:27.028Z,1022.02
2022-10-07T02:39:27.013Z,1022.05
2022-10-07T02:40:27.006Z,1022.05
2022-10-07T02:41:27.046Z,1022.02
2022-10-07T02:42:26.991Z,1022.03
2022-10-07T02:43:26.965Z,1021.98
2022-10-07T02:44:26.987Z,1021.99
2022-10-07T02:45:27.154Z,1022.01
2022-10-07T02:46:27.026Z,1022.00
2022-10-07T02:47:26.909Z,1021.98
2022-10-07T02:48:26.904Z,1021.96
2022-10-07T02:49:26.909Z,1021.96
2022-10-07T02:50:26.889Z,1021.94
2022-10-07T02:51:26.924Z,1021.94
2022-10-07T02:52:26.850Z,1021.94
2022-10-07T02:53:26.853Z,1021.88
2022-10-07T02:54:26.829Z,1021.94
2022-10-07T02:55:26.822Z,1021.90
2022-10-07T02:56:26.857Z,1021.93
2022-10-07T02:57:26.810Z,1021.89
2022-10-07T02:58:26.811Z,1021.92
2022-10-07T02:59:26.804Z,1021.90
2022-10-07T03:00:26.762Z,1021.90
2022-10-07T03:01:26.835Z,1021.92
2022-10-07T03:02:26.748Z,1021.91
2022-10-07T03:03:26.823Z,1021.89
2022-10-07T03:04:26.726Z,1021.89
2022-10-07T03:05:26.711Z,1021.86
2022-10-07T03:06:26.746Z,1021.84
2022-10-07T03:07:26.688Z,1021.84
2022-10-07T03:08:26.689Z,1021.89
2022-10-07T03:09:26.674Z,1021.94
2022-10-07T03:10:26.673Z,1021.80
2022-10-07T03:11:26.707Z,1021.88
2022-10-07T03:12:26.629Z,1021.84
2022-10-07T03:13:26.637Z,1021.77
2022-10-07T03:14:26.608Z,1021.79
2022-10-07T03:15:26.621Z,1021.78
2022-10-07T03:16:26.716Z,1021.74
2022-10-07T03:17:26.593Z,1021.71
2022-10-07T03:18:26.944Z,1021.74
2022-10-07T03:19:26.550Z,1021.72
2022-10-07T03:20:26.551Z,1021.66
2022-10-07T03:21:26.588Z,1021.69
2022-10-07T03:22:26.527Z,1021.69
2022-10-07T03:23:26.508Z,1021.70
2022-10-07T03:24:26.525Z,1021.74
2022-10-07T03:25:26.481Z,1021.74
2022-10-07T03:26:26.511Z,1021.75
2022-10-07T03:27:26.461Z,1021.71
2022-10-07T03:28:26.502Z,1021.67
2022-10-07T03:29:26.437Z,1021.69
2022-10-07T03:30:26.416Z,1021.73
2022-10-07T03:31:26.554Z,1021.71
2022-10-07T03:32:26.415Z,1021.67
2022-10-07T03:33:26.419Z,1021.67
2022-10-07T03:34:26.386Z,1021.61
2022-10-07T03:35:26.380Z,1021.71
2022-10-07T03:36:26.413Z,1021.63
2022-10-07T03:37:26.346Z,1021.68
2022-10-07T03:38:26.355Z,1021.72
2022-10-07T03:39:26.337Z,1021.72
2022-10-07T03:40:26.331Z,1021.70
2022-10-07T03:41:26.344Z,1021.71
2022-10-07T03:42:26.285Z,1021.69
2022-10-07T03:43:26.320Z,1021.66
2022-10-07T03:44:26.279Z,1021.66
2022-10-07T03:45:26.275Z,1021.65
2022-10-07T03:46:26.386Z,1021.66
2022-10-07T03:47:26.260Z,1021.64
2022-10-07T03:48:26.222Z,1021.60
2022-10-07T03:49:26.223Z,1021.61
2022-10-07T03:50:26.205Z,1021.62
2022-10-07T03:51:26.246Z,1021.63
2022-10-07T03:52:26.187Z,1021.62
2022-10-07T03:53:26.177Z,1021.58
2022-10-07T03:54:26.169Z,1021.60
2022-10-07T03:55:26.137Z,1021.57
2022-10-07T03:56:26.172Z,1021.57
2022-10-07T03:57:26.119Z,1021.57
2022-10-07T03:58:26.102Z,1021.52
2022-10-07T03:59:26.112Z,1021.54
2022-10-07T04:00:26.088Z,1021.54
2022-10-07T04:01:26.187Z,1021.52
2022-10-07T04:02:26.075Z,1021.51
2022-10-07T04:03:26.101Z,1021.54
2022-10-07T04:04:26.048Z,1021.51
2022-10-07T04:05:26.029Z,1021.50
2022-10-07T04:06:26.066Z,1021.48
2022-10-07T04:07:26.018Z,1021.46
2022-10-07T04:08:26.015Z,1021.46
2022-10-07T04:09:25.992Z,1021.45
2022-10-07T04:10:25.970Z,1021.40
2022-10-07T04:11:26.034Z,1021.44
2022-10-07T04:12:25.976Z,1021.48
2022-10-07T04:13:25.959Z,1021.47
2022-10-07T04:14:25.934Z,1021.47
2022-10-07T04:15:25.948Z,1021.42
2022-10-07T04:16:26.013Z,1021.45
2022-10-07T04:17:25.920Z,1021.41
2022-10-07T04:18:25.905Z,1021.41
2022-10-07T04:19:25.872Z,1021.41
2022-10-07T04:20:25.878Z,1021.40
2022-10-07T04:21:25.900Z,1021.38
2022-10-07T04:22:25.847Z,1021.41
2022-10-07T04:23:25.827Z,1021.40
2022-10-07T04:24:25.806Z,1021.38
2022-10-07T04:25:25.800Z,1021.40
2022-10-07T04:26:25.823Z,1021.39
2022-10-07T04:27:50.225Z,1021.35
2022-10-07T04:28:26.826Z,1021.37
2022-10-07T04:29:25.765Z,1021.35
2022-10-07T04:30:25.744Z,1021.37
2022-10-07T04:31:25.861Z,1021.36
2022-10-07T04:32:25.735Z,1021.36
2022-10-07T04:33:25.715Z,1021.33
2022-10-07T04:34:25.723Z,1021.27
2022-10-07T04:35:25.690Z,1021.31
2022-10-07T04:36:25.727Z,1021.28
2022-10-07T04:37:25.680Z,1021.29
2022-10-07T04:38:28.356Z,1021.27
2022-10-07T04:39:42.721Z,1021.29
2022-10-07T04:40:26.623Z,1021.21
2022-10-07T04:41:25.664Z,1021.23
2022-10-07T04:42:25.607Z,1021.20
2022-10-07T04:43:25.629Z,1021.25
2022-10-07T04:44:25.592Z,1021.25
2022-10-07T04:45:25.613Z,1021.22
2022-10-07T04:46:25.708Z,1021.22
2022-10-07T04:47:25.588Z,1021.16
2022-10-07T04:48:25.545Z,1021.19
2022-10-07T04:49:25.543Z,1021.21
2022-10-07T04:50:25.545Z,1021.17
2022-10-07T04:51:25.564Z,1021.13
2022-10-07T04:52:25.501Z,1021.16
2022-10-07T04:53:25.508Z,1021.11
2022-10-07T04:54:25.490Z,1021.16
2022-10-07T04:55:25.451Z,1021.12
2022-10-07T04:56:25.490Z,1021.04
2022-10-07T04:57:25.434Z,1021.08
2022-10-07T04:58:25.479Z,1021.14
2022-10-07T04:59:28.032Z,1021.06
2022-10-07T05:00:25.411Z,1021.05
2022-10-07T05:01:25.505Z,1021.00
2022-10-07T05:02:25.454Z,1021.02
2022-10-07T05:03:25.382Z,1021.06
2022-10-07T05:04:25.378Z,1021.03
2022-10-07T05:05:25.357Z,1021.02
2022-10-07T05:06:25.348Z,1020.97
2022-10-07T05:07:25.386Z,1020.97
2022-10-07T05:08:25.336Z,1020.95
2022-10-07T05:09:25.313Z,1020.93
2022-10-07T05:10:25.286Z,1020.95
2022-10-07T05:11:25.295Z,1020.98
2022-10-07T05:12:25.317Z,1020.91
2022-10-07T05:13:25.274Z,1020.95
2022-10-07T05:14:25.261Z,1020.96
2022-10-07T05:15:25.248Z,1020.93
2022-10-07T05:16:25.278Z,1020.92
2022-10-07T05:17:25.273Z,1020.92
2022-10-07T05:18:25.208Z,1020.91
2022-10-07T05:19:25.216Z,1020.87
2022-10-07T05:20:25.187Z,1020.87
2022-10-07T05:21:25.164Z,1020.83
2022-10-07T05:22:25.216Z,1020.87
2022-10-07T05:23:28.404Z,1020.90
2022-10-07T05:24:25.142Z,1020.83
2022-10-07T05:25:25.105Z,1020.85
2022-10-07T05:26:25.105Z,1020.83
2022-10-07T05:27:25.142Z,1020.87
2022-10-07T05:28:25.116Z,1020.85
2022-10-07T05:29:25.098Z,1020.82
2022-10-07T05:30:25.085Z,1020.81
2022-10-07T05:31:25.113Z,1020.81
2022-10-07T05:32:25.089Z,1020.81
2022-10-07T05:33:25.031Z,1020.77
2022-10-07T05:34:25.028Z,1020.76
2022-10-07T05:35:25.029Z,1020.79
2022-10-07T05:36:25.017Z,1020.81
2022-10-07T05:37:25.063Z,1020.78
2022-10-07T05:38:24.999Z,1020.80
2022-10-07T05:39:24.973Z,1020.77
2022-10-07T05:40:24.956Z,1020.75
2022-10-07T05:41:24.951Z,1020.78
2022-10-07T05:42:24.983Z,1020.81
2022-10-07T05:43:24.973Z,1020.77
2022-10-07T05:44:24.917Z,1020.81
2022-10-07T05:45:24.921Z,1020.77
2022-10-07T05:46:24.892Z,1020.73
2022-10-07T05:47:24.925Z,1020.70
2022-10-07T05:48:24.884Z,1020.72
2022-10-07T05:49:24.861Z,1020.75
2022-10-07T05:50:24.854Z,1020.76
2022-10-07T05:51:24.837Z,1020.72
2022-10-07T05:52:24.876Z,1020.68
2022-10-07T05:53:24.819Z,1020.75
2022-10-07T05:54:24.795Z,1020.73
2022-10-07T05:55:24.768Z,1020.72
2022-10-07T05:56:24.766Z,1020.67
2022-10-07T05:57:24.790Z,1020.68
2022-10-07T05:58:24.739Z,1020.64
2022-10-07T05:59:24.760Z,1020.63
2022-10-07T06:00:24.728Z,1020.66
2022-10-07T06:01:24.728Z,1020.63
2022-10-07T06:02:24.814Z,1020.62
2022-10-07T06:03:24.735Z,1020.62
2022-10-07T06:04:24.687Z,1020.63
2022-10-07T06:05:24.703Z,1020.63
2022-10-07T06:06:24.697Z,1020.67
2022-10-07T06:07:29.109Z,1020.64
2022-10-07T06:08:24.639Z,1020.63
2022-10-07T06:09:24.644Z,1020.66
2022-10-07T06:10:24.606Z,1020.62
2022-10-07T06:11:24.616Z,1020.63
2022-10-07T06:12:24.642Z,1020.66
2022-10-07T06:13:24.591Z,1020.66
2022-10-07T06:14:24.568Z,1020.66
2022-10-07T06:15:24.549Z,1020.60
2022-10-07T06:16:24.584Z,1020.61
2022-10-07T06:17:24.582Z,1020.60
2022-10-07T06:18:24.547Z,1020.57
2022-10-07T06:19:24.515Z,1020.61
2022-10-07T06:20:24.520Z,1020.65
2022-10-07T06:21:24.488Z,1020.63
2022-10-07T06:22:24.534Z,1020.64
2022-10-07T06:23:24.467Z,1020.58
2022-10-07T06:24:24.451Z,1020.62
2022-10-07T06:25:24.445Z,1020.59
2022-10-07T06:26:24.411Z,1020.58
2022-10-07T06:27:24.475Z,1020.55
2022-10-07T06:28:24.505Z,1020.56
2022-10-07T06:29:24.421Z,1020.56
2022-10-07T06:30:24.430Z,1020.51
2022-10-07T06:31:24.399Z,1020.57
2022-10-07T06:32:24.423Z,1020.56
2022-10-07T06:33:24.350Z,1020.58
2022-10-07T06:34:24.351Z,1020.49
2022-10-07T06:35:24.334Z,1020.49
2022-10-07T06:36:24.324Z,1020.54
2022-10-07T06:37:24.385Z,1020.52
2022-10-07T06:38:24.282Z,1020.52
2022-10-07T06:39:24.284Z,1020.51
2022-10-07T06:40:24.305Z,1020.55
2022-10-07T06:41:24.267Z,1020.55
2022-10-07T06:42:24.316Z,1020.54
2022-10-07T06:43:24.251Z,1020.50
2022-10-07T06:44:24.233Z,1020.49
2022-10-07T06:45:24.230Z,1020.53
2022-10-07T06:46:24.270Z,1020.51
2022-10-07T06:47:24.242Z,1020.47
2022-10-07T06:48:24.170Z,1020.54
2022-10-07T06:49:24.169Z,1020.53
2022-10-07T06:50:24.176Z,1020.48
2022-10-07T06:51:24.153Z,1020.51
2022-10-07T06:52:24.188Z,1020.50
2022-10-07T06:53:24.114Z,1020.47
2022-10-07T06:54:24.119Z,1020.47
2022-10-07T06:55:24.093Z,1020.44
2022-10-07T06:56:24.085Z,1020.43
2022-10-07T06:57:44.823Z,1020.46
2022-10-07T06:58:25.071Z,1020.40
2022-10-07T06:59:24.067Z,1020.46
2022-10-07T07:00:24.048Z,1020.40
2022-10-07T07:01:24.068Z,1020.39
2022-10-07T07:02:24.133Z,1020.43
2022-10-07T07:03:24.019Z,1020.44
2022-10-07T07:04:24.028Z,1020.38
2022-10-07T07:05:23.991Z,1020.36
2022-10-07T07:06:24.021Z,1020.38
2022-10-07T07:07:23.998Z,1020.33
2022-10-07T07:08:23.983Z,1020.34
2022-10-07T07:09:23.947Z,1020.29
2022-10-07T07:10:23.934Z,1020.31
2022-10-07T07:11:23.934Z,1020.30
2022-10-07T07:12:23.962Z,1020.29
2022-10-07T07:13:23.935Z,1020.28
2022-10-07T07:14:23.892Z,1020.30
2022-10-07T07:15:23.895Z,1020.27
2022-10-07T07:16:23.911Z,1020.31
2022-10-07T07:17:23.910Z,1020.32
2022-10-07T07:18:23.834Z,1020.30
2022-10-07T07:19:23.832Z,1020.30
2022-10-07T07:20:23.838Z,1020.29
2022-10-07T07:21:23.810Z,1020.23
2022-10-07T07:22:23.853Z,1020.24
2022-10-07T07:23:23.809Z,1020.25
2022-10-07T07:24:23.768Z,1020.27
2022-10-07T07:25:23.756Z,1020.19
2022-10-07T07:26:23.746Z,1020.23
2022-10-07T07:27:23.782Z,1020.13
2022-10-07T07:28:23.768Z,1020.16
2022-10-07T07:29:23.731Z,1020.19
2022-10-07T07:30:23.705Z,1020.13
2022-10-07T07:31:23.814Z,1020.14
2022-10-07T07:32:23.735Z,1020.06
2022-10-07T07:33:23.674Z,1020.10
2022-10-07T07:34:23.676Z,1020.08
2022-10-07T07:35:23.672Z,1020.07
2022-10-07T07:36:23.651Z,1020.09
2022-10-07T07:37:23.684Z,1020.12
2022-10-07T07:38:25.548Z,1020.05
2022-10-07T07:39:23.619Z,1020.01
2022-10-07T07:40:23.587Z,1020.00
2022-10-07T07:41:23.590Z,1020.01
2022-10-07T07:42:23.625Z,1020.05
2022-10-07T07:43:23.605Z,1020.01
2022-10-07T07:44:23.568Z,1019.94
2022-10-07T07:45:23.553Z,1019.99
2022-10-07T07:46:23.569Z,1020.01
2022-10-07T07:47:23.506Z,1019.95
2022-10-07T07:48:23.544Z,1019.93
2022-10-07T07:49:23.482Z,1019.98
2022-10-07T07:50:23.492Z,1019.98
2022-10-07T07:51:23.470Z,1019.96
2022-10-07T07:52:23.476Z,1019.98
2022-10-07T07:53:23.513Z,1019.95
2022-10-07T07:54:23.424Z,1019.99
2022-10-07T07:55:23.404Z,1019.93
2022-10-07T07:56:23.420Z,1019.91
2022-10-07T07:57:23.439Z,1019.88
2022-10-07T07:58:23.423Z,1019.88
2022-10-07T07:59:23.378Z,1019.90
2022-10-07T08:00:23.353Z,1019.90
2022-10-07T08:01:23.437Z,1019.90
2022-10-07T08:02:23.433Z,1019.92
2022-10-07T08:03:23.379Z,1019.84
2022-10-07T08:04:23.309Z,1019.87
2022-10-07T08:05:24.275Z,1019.86
2022-10-07T08:06:23.309Z,1019.82
2022-10-07T08:07:23.306Z,1019.81
2022-10-07T08:08:23.355Z,1019.82
2022-10-07T08:09:23.285Z,1019.83
2022-10-07T08:10:23.327Z,1019.78
2022-10-07T08:11:23.253Z,1019.79
2022-10-07T08:12:23.233Z,1019.81
2022-10-07T08:13:23.264Z,1019.77
2022-10-07T08:14:23.237Z,1019.76
2022-10-07T08:15:23.234Z,1019.78
2022-10-07T08:16:23.204Z,1019.74
2022-10-07T08:17:23.201Z,1019.74
2022-10-07T08:18:23.233Z,1019.74
2022-10-07T08:19:23.146Z,1019.69
2022-10-07T08:20:23.259Z,1019.69
2022-10-07T08:21:23.124Z,1019.74
2022-10-07T08:22:23.134Z,1019.67
2022-10-07T08:23:23.142Z,1019.67
2022-10-07T08:24:23.095Z,1019.67
2022-10-07T08:25:23.079Z,1019.69
2022-10-07T08:26:23.078Z,1019.66
2022-10-07T08:27:23.069Z,1019.67
2022-10-07T08:28:23.152Z,1019.71
2022-10-07T08:29:23.053Z,1019.68
2022-10-07T08:30:23.057Z,1019.65
2022-10-07T08:31:23.112Z,1019.64
2022-10-07T08:32:23.010Z,1019.68
2022-10-07T08:33:23.060Z,1019.64
2022-10-07T08:34:22.994Z,1019.68
2022-10-07T08:35:22.963Z,1019.60
2022-10-07T08:36:22.996Z,1019.58
2022-10-07T08:37:22.980Z,1019.53
2022-10-07T08:38:22.992Z,1019.50
2022-10-07T08:39:22.943Z,1019.47
2022-10-07T08:40:22.905Z,1019.47
2022-10-07T08:41:22.908Z,1019.49
2022-10-07T08:42:22.898Z,1019.48
2022-10-07T08:43:22.959Z,1019.50
2022-10-07T08:44:22.911Z,1019.47
2022-10-07T08:45:22.866Z,1019.46
2022-10-07T08:46:22.917Z,1019.42
2022-10-07T08:47:22.843Z,1019.45
2022-10-07T08:48:22.908Z,1019.41
2022-10-07T08:49:22.812Z,1019.41
2022-10-07T08:50:22.844Z,1019.43
2022-10-07T08:51:22.784Z,1019.45
2022-10-07T08:52:22.783Z,1019.42
2022-10-07T08:53:22.798Z,1019.41
2022-10-07T08:54:22.754Z,1019.43
2022-10-07T08:55:22.764Z,1019.46
2022-10-07T08:56:22.756Z,1019.38
2022-10-07T08:57:22.738Z,1019.33
2022-10-07T08:58:22.778Z,1019.32
2022-10-07T08:59:22.719Z,1019.30
2022-10-07T09:00:22.696Z,1019.29
2022-10-07T09:01:22.741Z,1019.31
2022-10-07T09:02:22.714Z,1019.28
2022-10-07T09:03:25.140Z,1019.30
2022-10-07T09:04:22.675Z,1019.30
2022-10-07T09:05:22.663Z,1019.27
2022-10-07T09:06:22.629Z,1019.29
2022-10-07T09:07:22.624Z,1019.25
2022-10-07T09:08:22.664Z,1019.15
2022-10-07T09:09:22.584Z,1019.19
2022-10-07T09:10:22.619Z,1019.18
2022-10-07T09:11:22.585Z,1019.15
2022-10-07T09:12:22.573Z,1019.12
2022-10-07T09:13:22.614Z,1019.07
2022-10-07T09:14:22.554Z,1019.10
2022-10-07T09:15:22.532Z,1019.05
2022-10-07T09:16:22.504Z,1019.05
2022-10-07T09:17:22.504Z,1019.07
2022-10-07T09:18:22.549Z,1019.07
2022-10-07T09:19:22.504Z,1019.06
2022-10-07T09:20:22.488Z,1019.05
2022-10-07T09:21:22.461Z,1019.03
2022-10-07T09:22:22.445Z,1019.00
2022-10-07T09:23:22.462Z,1018.97
2022-10-07T09:24:22.432Z,1018.95
2022-10-07T09:25:22.402Z,1018.95
2022-10-07T09:26:22.419Z,1018.89
2022-10-07T09:27:22.402Z,1018.90
2022-10-07T09:28:22.517Z,1018.95
2022-10-07T09:29:22.427Z,1018.92
2022-10-07T09:30:22.383Z,1018.92
2022-10-07T09:31:22.409Z,1018.97
2022-10-07T09:32:22.367Z,1018.95
2022-10-07T09:33:22.397Z,1018.96
2022-10-07T09:34:22.351Z,1018.87
2022-10-07T09:35:22.326Z,1018.88
2022-10-07T09:36:22.299Z,1018.88
2022-10-07T09:37:22.320Z,1018.93
2022-10-07T09:38:22.339Z,1018.86
2022-10-07T09:39:22.265Z,1018.85
2022-10-07T09:40:22.254Z,1018.85
2022-10-07T09:41:22.237Z,1018.85
2022-10-07T09:42:22.285Z,1018.86
2022-10-07T09:43:22.206Z,1018.85
2022-10-07T09:44:22.225Z,1018.81
2022-10-07T09:45:22.215Z,1018.84
2022-10-07T09:46:22.226Z,1018.82
2022-10-07T09:47:22.226Z,1018.77
2022-10-07T09:48:22.152Z,1018.77
2022-10-07T09:49:24.399Z,1018.77
2022-10-07T09:50:22.162Z,1018.76
2022-10-07T09:51:22.112Z,1018.80
2022-10-07T09:52:22.123Z,1018.81
2022-10-07T09:53:22.145Z,1018.75
2022-10-07T09:54:22.106Z,1018.71
2022-10-07T09:55:22.097Z,1018.73
2022-10-07T09:56:22.080Z,1018.71
2022-10-07T09:57:22.066Z,1018.69
2022-10-07T09:58:22.117Z,1018.69
2022-10-07T09:59:22.020Z,1018.68
2022-10-07T10:00:22.037Z,1018.70
2022-10-07T10:01:22.036Z,1018.71
2022-10-07T10:02:22.167Z,1018.72
2022-10-07T10:03:22.104Z,1018.71
2022-10-07T10:04:21.979Z,1018.72
2022-10-07T10:05:21.978Z,1018.72
2022-10-07T10:06:22.011Z,1018.64
2022-10-07T10:07:21.976Z,1018.74
2022-10-07T10:08:22.001Z,1018.64
2022-10-07T10:09:21.931Z,1018.64
2022-10-07T10:10:21.913Z,1018.63
2022-10-07T10:11:21.900Z,1018.68
2022-10-07T10:12:21.906Z,1018.67
2022-10-07T10:13:21.917Z,1018.59
2022-10-07T10:14:21.883Z,1018.59
2022-10-07T10:15:21.865Z,1018.52
2022-10-07T10:16:21.878Z,1018.54
2022-10-07T10:17:21.831Z,1018.58
2022-10-07T10:18:21.883Z,1018.55
2022-10-07T10:19:21.806Z,1018.48
2022-10-07T10:20:21.787Z,1018.46
2022-10-07T10:21:21.773Z,1018.46
2022-10-07T10:22:21.777Z,1018.46
2022-10-07T10:23:21.820Z,1018.40
2022-10-07T10:24:21.784Z,1018.42
2022-10-07T10:25:21.743Z,1018.40
2022-10-07T10:26:21.753Z,1018.36
2022-10-07T10:27:21.731Z,1018.37
2022-10-07T10:28:21.880Z,1018.34
2022-10-07T10:29:21.713Z,1018.30
2022-10-07T10:30:21.689Z,1018.34
2022-10-07T10:31:21.740Z,1018.31
2022-10-07T10:32:21.669Z,1018.28
2022-10-07T10:33:21.725Z,1018.27
2022-10-07T10:34:21.656Z,1018.31
2022-10-07T10:35:21.622Z,1018.28
2022-10-07T10:36:21.627Z,1018.25
2022-10-07T10:37:21.607Z,1018.25
2022-10-07T10:38:21.656Z,1018.28
2022-10-07T10:39:21.573Z,1018.20
2022-10-07T10:40:21.607Z,1018.22
2022-10-07T10:41:21.596Z,1018.17
2022-10-07T10:42:21.596Z,1018.16
2022-10-07T10:43:21.607Z,1018.15
2022-10-07T10:44:21.561Z,1018.17
2022-10-07T10:45:21.524Z,1018.15
2022-10-07T10:46:21.539Z,1018.12
2022-10-07T10:47:21.508Z,1018.07
2022-10-07T10:48:21.545Z,1018.09
2022-10-07T10:49:21.478Z,1018.03
2022-10-07T10:50:21.467Z,1018.04
2022-10-07T10:51:21.449Z,1018.02
2022-10-07T10:52:21.469Z,1018.01
2022-10-07T10:53:21.617Z,1018.03
2022-10-07T10:54:21.444Z,1018.00
2022-10-07T10:55:21.420Z,1017.98
2022-10-07T10:56:21.420Z,1018.01
2022-10-07T10:57:21.393Z,1017.97
2022-10-07T10:58:21.424Z,1018.00
2022-10-07T10:59:21.386Z,1017.83
2022-10-07T11:00:21.372Z,1017.90
2022-10-07T11:01:21.546Z,1017.88
2022-10-07T11:02:21.458Z,1017.84
2022-10-07T11:03:21.423Z,1017.85
2022-10-07T11:04:21.323Z,1017.79
2022-10-07T11:05:21.332Z,1017.79
2022-10-07T11:06:21.300Z,1017.76
2022-10-07T11:07:21.300Z,1017.74
2022-10-07T11:08:24.176Z,1017.73
2022-10-07T11:09:22.258Z,1017.72
2022-10-07T11:10:21.269Z,1017.69
2022-10-07T11:11:21.238Z,1017.64
2022-10-07T11:12:21.219Z,1017.63
2022-10-07T11:13:21.273Z,1017.60
2022-10-07T11:14:21.216Z,1017.55
2022-10-07T11:15:21.199Z,1017.53
2022-10-07T11:16:21.244Z,1017.55
2022-10-07T11:17:21.182Z,1017.49
2022-10-07T11:18:21.231Z,1017.46
2022-10-07T11:19:21.151Z,1017.45
2022-10-07T11:20:21.140Z,1017.49
2022-10-07T11:21:21.132Z,1017.37
2022-10-07T11:22:21.132Z,1017.39
2022-10-07T11:23:21.150Z,1017.40
2022-10-07T11:24:21.099Z,1017.37
2022-10-07T11:25:21.099Z,1017.32
2022-10-07T11:26:21.067Z,1017.35
2022-10-07T11:27:21.092Z,1017.33
2022-10-07T11:28:21.162Z,1017.32
2022-10-07T11:29:21.072Z,1017.25
2022-10-07T11:30:21.037Z,1017.29
2022-10-07T11:31:21.042Z,1017.28
2022-10-07T11:32:21.019Z,1017.23
2022-10-07T11:33:21.062Z,1017.20
2022-10-07T11:34:20.994Z,1017.18
2022-10-07T11:35:21.003Z,1017.14
2022-10-07T11:36:21.013Z,1017.11
2022-10-07T11:37:20.982Z,1017.13
2022-10-07T11:38:20.988Z,1017.09
2022-10-07T11:39:20.936Z,1017.09
2022-10-07T11:40:20.940Z,1017.08
2022-10-07T11:41:20.918Z,1016.99
2022-10-07T11:42:20.895Z,1016.95
2022-10-07T11:43:20.931Z,1016.96
2022-10-07T11:44:20.873Z,1016.98
2022-10-07T11:45:20.874Z,1016.95
2022-10-07T11:46:20.912Z,1016.91
2022-10-07T11:47:20.853Z,1016.92
2022-10-07T11:48:20.865Z,1016.86
2022-10-07T11:49:20.826Z,1016.84
2022-10-07T11:50:20.817Z,1016.83
2022-10-07T11:51:20.800Z,1016.82
2022-10-07T11:52:20.796Z,1016.82
2022-10-07T11:53:20.841Z,1016.78
2022-10-07T11:54:20.764Z,1016.74
2022-10-07T11:55:20.822Z,1016.72
2022-10-07T11:56:20.752Z,1016.70
2022-10-07T11:57:20.758Z,1016.65
2022-10-07T11:58:20.760Z,1016.60
2022-10-07T11:59:20.746Z,1016.60
2022-10-07T12:00:20.725Z,1016.59
2022-10-07T12:01:20.702Z,1016.58
2022-10-07T12:02:20.737Z,1016.55
2022-10-07T12:03:20.811Z,1016.55
2022-10-07T12:04:20.648Z,1016.52
2022-10-07T12:05:20.645Z,1016.52